Time;durP1;ratioP1;P1;durP2;ratioP2;P2;SDS_P1;SDS_P2;PMS_P1;PMS_P2;Temp;Humidity;BMP_temperature;BMP_pressure;BME280_temperature;BME280_humidity;BME280_pressure;Samples;Min_cycle;Max_cycle;Signal;HPM_P1;HPM_P2
2021/06/23 00:01:13;;;;;;;;;;;;;;;25.37;71.81;100429.45;1726314;81;20249;-62
2021/06/23 00:03:39;;;;;;;;;;;;;;;25.33;71.83;100433.31;1741231;80;20215;-62
2021/06/23 00:06:05;;;;;;;;;;;;;;;25.29;71.86;100429.63;1774620;79;20700;-62
2021/06/23 00:08:31;;;;;;;;;;;;;;;25.24;71.89;100430.70;1745035;80;20198;-62
2021/06/23 00:10:58;;;;;;;;;;;;;;;25.22;71.92;100434.99;1760893;79;21086;-62
2021/06/23 00:13:24;;;;;;;;;;;;;;;25.20;71.93;100428.98;1769830;78;20184;-62
2021/06/23 00:15:50;;;;;;;;;;;;;;;25.17;72.01;100427.70;1770680;78;20216;-61
2021/06/23 00:18:16;;;;;;;;;;;;;;;25.18;72.08;100428.52;1768944;78;20262;-61
2021/06/23 00:20:42;;;;;;;;;;;;;;;25.17;72.17;100433.28;1777171;78;21491;-61
2021/06/23 00:23:08;;;;;;;;;;;;;;;25.19;72.25;100435.71;1773181;79;23268;-61
2021/06/23 00:25:33;;;;;;;;;;;;;;;25.19;72.30;100434.32;1771518;79;20190;-61
2021/06/23 00:27:59;;;;;;;;;;;;;;;25.22;72.34;100441.95;1772213;78;20218;-61
2021/06/23 00:30:25;;;;;;;;;;;;;;;25.24;72.38;100443.23;1771883;78;20316;-61
2021/06/23 00:32:52;;;;;;;;;;;;;;;25.26;72.41;100442.27;1771321;78;21153;-62
2021/06/23 00:35:18;;;;;;;;;;;;;;;25.29;72.42;100444.94;1773517;78;21183;-62
2021/06/23 00:37:44;;;;;;;;;;;;;;;25.31;72.43;100446.19;1768629;78;20338;-62
2021/06/23 00:40:11;;;;;;;;;;;;;;;25.32;72.43;100440.85;1768008;78;20732;-61
2021/06/23 00:42:37;;;;;;;;;;;;;;;25.34;72.46;100439.89;1776393;78;20557;-61
2021/06/23 00:45:07;;;;;;;;;;;;;;;25.37;72.46;100441.17;1770695;78;20188;-62
2021/06/23 00:47:33;;;;;;;;;;;;;;;25.38;72.46;100438.59;1777896;78;21158;-61
2021/06/23 00:50:01;;;;;;;;;;;;;;;25.39;72.48;100443.81;1765493;79;20689;-63
2021/06/23 00:52:27;;;;;;;;;;;;;;;25.41;72.46;100442.88;1751403;78;20652;-62
2021/06/23 00:54:53;;;;;;;;;;;;;;;25.43;72.44;100439.72;1767708;79;20744;-61
2021/06/23 00:57:19;;;;;;;;;;;;;;;25.43;72.45;100429.39;1767481;78;20255;-62
2021/06/23 00:59:46;;;;;;;;;;;;;;;25.43;72.44;100428.00;1770340;78;20983;-62
2021/06/23 01:02:12;;;;;;;;;;;;;;;25.45;72.45;100436.81;1775300;78;20173;-62
2021/06/23 01:04:38;;;;;;;;;;;;;;;25.45;72.45;100434.61;1752613;78;21324;-62
2021/06/23 01:07:04;;;;;;;;;;;;;;;25.44;72.44;100425.45;1756888;80;20390;-61
2021/06/23 01:09:30;;;;;;;;;;;;;;;25.42;72.43;100419.98;1756576;80;20449;-61
2021/06/23 01:12:20;;;;;;;;;;;;;;;25.39;72.41;100420.14;1745219;80;21120;-61
2021/06/23 01:14:46;;;;;;;;;;;;;;;25.36;72.39;100420.05;1740949;81;20151;-62
2021/06/23 01:17:12;;;;;;;;;;;;;;;25.32;72.38;100413.01;1739038;81;20194;-61
2021/06/23 01:19:43;;;;;;;;;;;;;;;25.28;72.38;100405.14;1753480;81;20162;-62
2021/06/23 01:22:13;;;;;;;;;;;;;;;25.23;72.41;100397.63;1746299;80;20440;-62
2021/06/23 01:24:41;;;;;;;;;;;;;;;25.18;72.42;100410.42;1750913;81;21974;-62
2021/06/23 01:27:08;;;;;;;;;;;;;;;25.14;72.45;100406.16;1733671;81;20187;-61
2021/06/23 01:29:35;;;;;;;;;;;;;;;25.10;72.48;100396.09;1741290;81;20177;-62
2021/06/23 01:32:02;;;;;;;;;;;;;;;25.08;72.49;100402.02;1737644;80;20181;-61
2021/06/23 01:34:28;;;;;;;;;;;;;;;25.07;72.53;100403.20;1728687;81;20232;-62
2021/06/23 01:36:54;;;;;;;;;;;;;;;25.06;72.60;100404.94;1746557;81;21247;-62
2021/06/23 01:39:19;;;;;;;;;;;;;;;25.06;72.68;100415.50;1748896;80;20807;-61
2021/06/23 01:41:45;;;;;;;;;;;;;;;25.07;72.73;100413.52;1745393;80;20266;-61
2021/06/23 01:44:11;;;;;;;;;;;;;;;25.07;72.80;100404.59;1754442;80;20233;-61
2021/06/23 01:46:37;;;;;;;;;;;;;;;25.09;72.85;100406.42;1711309;81;20154;-61
2021/06/23 01:49:04;;;;;;;;;;;;;;;25.12;72.89;100397.34;1753885;80;21166;-62
2021/06/23 01:51:30;;;;;;;;;;;;;;;25.15;72.93;100399.44;1756543;81;20100;-61
2021/06/23 01:53:56;;;;;;;;;;;;;;;25.17;72.93;100404.05;1743914;80;20201;-62
2021/06/23 01:56:22;;;;;;;;;;;;;;;25.20;72.94;100410.89;1734408;81;20152;-61
2021/06/23 01:58:48;;;;;;;;;;;;;;;25.21;72.96;100409.13;1741376;80;20209;-61
2021/06/23 02:01:25;;;;;;;;;;;;;;;25.24;72.94;100411.79;1756516;80;21172;-61
2021/06/23 02:03:58;;;;;;;;;;;;;;;25.25;72.95;100410.02;1770071;79;20461;-61
2021/06/23 02:06:46;;;;;;;;;;;;;;;25.27;72.94;100405.49;1776006;79;20129;-61
2021/06/23 02:09:24;;;;;;;;;;;;;;;25.29;72.93;100410.14;1724019;81;20551;-62
2021/06/23 02:11:54;;;;;;;;;;;;;;;25.31;72.91;100403.03;1762071;79;20270;-61
2021/06/23 02:14:38;;;;;;;;;;;;;;;25.32;72.91;100402.45;1724258;81;21135;-62
2021/06/23 02:17:07;;;;;;;;;;;;;;;25.33;72.88;100402.07;1761771;79;20200;-61
2021/06/23 02:19:32;;;;;;;;;;;;;;;25.33;72.88;100407.64;1729325;81;20223;-61
2021/06/23 02:22:01;;;;;;;;;;;;;;;25.33;72.87;100408.25;1704227;81;20200;-61
2021/06/23 02:24:28;;;;;;;;;;;;;;;25.30;72.86;100407.55;1710545;81;20154;-61
2021/06/23 02:26:55;;;;;;;;;;;;;;;25.28;72.80;100407.12;1713635;82;20959;-61
2021/06/23 02:29:21;;;;;;;;;;;;;;;25.24;72.76;100412.60;1714096;81;20229;-61
2021/06/23 02:31:47;;;;;;;;;;;;;;;25.20;72.75;100413.09;1710547;82;20259;-62
2021/06/23 02:34:14;;;;;;;;;;;;;;;25.15;72.73;100416.14;1682735;83;20192;-61
2021/06/23 02:36:40;;;;;;;;;;;;;;;25.12;72.71;100429.97;1710478;82;20198;-61
2021/06/23 02:39:06;;;;;;;;;;;;;;;25.07;72.74;100429.64;1710047;82;21322;-62
2021/06/23 02:41:32;;;;;;;;;;;;;;;25.04;72.74;100433.73;1713261;82;20142;-61
2021/06/23 02:43:58;;;;;;;;;;;;;;;24.99;72.74;100434.80;1711673;81;20152;-62
2021/06/23 02:46:24;;;;;;;;;;;;;;;24.96;72.76;100436.30;1711996;81;20239;-62
2021/06/23 02:48:51;;;;;;;;;;;;;;;24.95;72.75;100438.84;1699611;82;20223;-61
2021/06/23 02:51:21;;;;;;;;;;;;;;;24.94;72.81;100440.61;1711853;82;21123;-62
2021/06/23 02:53:48;;;;;;;;;;;;;;;24.92;72.85;100432.61;1706527;82;20379;-61
2021/06/23 02:56:15;;;;;;;;;;;;;;;24.94;72.93;100437.83;1711701;82;20209;-62
2021/06/23 02:58:42;;;;;;;;;;;;;;;24.95;72.97;100440.84;1710120;81;20138;-62
2021/06/23 03:01:12;;;;;;;;;;;;;;;24.97;73.02;100441.29;1703650;82;20174;-61
2021/06/23 03:03:39;;;;;;;;;;;;;;;24.98;73.02;100436.77;1712844;82;21173;-61
2021/06/23 03:06:05;;;;;;;;;;;;;;;25.01;73.04;100447.76;1706916;81;20101;-61
2021/06/23 03:08:31;;;;;;;;;;;;;;;25.02;73.07;100452.16;1707071;81;20454;-61
2021/06/23 03:10:57;;;;;;;;;;;;;;;25.05;73.05;100457.02;1708669;81;20568;-62
2021/06/23 03:13:23;;;;;;;;;;;;;;;25.06;73.04;100451.68;1707861;81;20405;-64
2021/06/23 03:15:49;;;;;;;;;;;;;;;25.09;73.06;100458.50;1710855;81;21516;-62
2021/06/23 03:18:15;;;;;;;;;;;;;;;25.11;73.03;100468.13;1711879;81;20289;-62
2021/06/23 03:20:41;;;;;;;;;;;;;;;25.12;73.02;100466.94;1715987;81;20246;-60
2021/06/23 03:23:07;;;;;;;;;;;;;;;25.14;73.03;100468.80;1704563;82;20231;-60
2021/06/23 03:25:33;;;;;;;;;;;;;;;25.19;73.03;100480.26;1757602;79;20237;-59
2021/06/23 03:28:00;;;;;;;;;;;;;;;25.22;73.03;100478.14;1760345;80;21162;-61
2021/06/23 03:30:26;;;;;;;;;;;;;;;25.23;73.00;100481.97;1764761;79;20139;-60
2021/06/23 03:32:52;;;;;;;;;;;;;;;25.24;72.99;100487.78;1759460;80;20193;-60
2021/06/23 03:35:22;;;;;;;;;;;;;;;25.25;72.93;100479.62;1757460;79;20673;-60
2021/06/23 03:37:52;;;;;;;;;;;;;;;25.25;72.88;100490.77;1755124;79;20203;-60
2021/06/23 03:40:18;;;;;;;;;;;;;;;25.24;72.79;100497.52;1760727;79;21083;-59
2021/06/23 03:42:44;;;;;;;;;;;;;;;25.21;72.75;100492.64;1756368;79;20197;-61
2021/06/23 03:45:11;;;;;;;;;;;;;;;25.18;72.68;100498.13;1759627;79;20288;-62
2021/06/23 03:47:37;;;;;;;;;;;;;;;25.14;72.65;100489.68;1758692;79;20152;-60
2021/06/23 03:50:04;;;;;;;;;;;;;;;25.10;72.61;100482.39;1761043;79;20177;-61
2021/06/23 03:52:30;;;;;;;;;;;;;;;25.06;72.61;100482.88;1754254;79;21348;-61
2021/06/23 03:54:56;;;;;;;;;;;;;;;25.01;72.60;100488.11;1746431;79;20179;-61
2021/06/23 03:57:22;;;;;;;;;;;;;;;24.99;72.64;100484.89;1757167;79;20212;-61
2021/06/23 03:59:48;;;;;;;;;;;;;;;24.99;72.65;100485.67;1760493;79;20153;-61
2021/06/23 04:02:14;;;;;;;;;;;;;;;24.99;72.69;100495.42;1757092;80;20726;-61
2021/06/23 04:04:40;;;;;;;;;;;;;;;25.01;72.76;100493.69;1749491;79;21741;-61
2021/06/23 04:07:06;;;;;;;;;;;;;;;25.04;72.78;100497.14;1756196;79;20241;-61
2021/06/23 04:09:32;;;;;;;;;;;;;;;25.07;72.80;100504.80;1760996;79;20194;-61
2021/06/23 04:11:58;;;;;;;;;;;;;;;25.10;72.84;100510.23;1761233;79;20141;-61
2021/06/23 04:14:24;;;;;;;;;;;;;;;25.13;72.84;100513.69;1767609;79;20262;-61
2021/06/23 04:16:49;;;;;;;;;;;;;;;25.15;72.85;100509.40;1766344;79;20904;-61
2021/06/23 04:19:15;;;;;;;;;;;;;;;25.19;72.83;100498.36;1762245;79;20237;-61
2021/06/23 04:21:41;;;;;;;;;;;;;;;25.23;72.80;100507.03;1761281;79;20820;-61
2021/06/23 04:24:07;;;;;;;;;;;;;;;25.26;72.80;100503.53;1761740;80;21504;-60
2021/06/23 04:26:33;;;;;;;;;;;;;;;25.31;72.74;100509.42;1762329;80;20231;-61
2021/06/23 04:28:59;;;;;;;;;;;;;;;25.34;72.73;100507.31;1761237;79;21303;-61
2021/06/23 04:31:25;;;;;;;;;;;;;;;25.37;72.69;100511.61;1727511;80;20256;-61
2021/06/23 04:33:51;;;;;;;;;;;;;;;25.37;72.52;100511.61;1705008;82;20230;-61
2021/06/23 04:36:17;;;;;;;;;;;;;;;25.32;72.37;100508.27;1689575;82;20188;-60
2021/06/23 04:38:43;;;;;;;;;;;;;;;25.25;72.26;100503.91;1727630;80;20241;-61
2021/06/23 04:41:09;;;;;;;;;;;;;;;25.18;72.16;100516.22;1726471;80;21091;-61
2021/06/23 04:43:35;;;;;;;;;;;;;;;25.07;72.05;100515.94;1730051;80;20243;-61
2021/06/23 04:46:01;;;;;;;;;;;;;;;24.97;71.99;100511.68;1729266;80;20619;-61
2021/06/23 04:48:27;;;;;;;;;;;;;;;24.90;71.98;100525.98;1718215;80;20325;-61
2021/06/23 04:50:53;;;;;;;;;;;;;;;24.81;71.96;100522.50;1726029;80;20262;-61
2021/06/23 04:53:19;;;;;;;;;;;;;;;24.73;71.94;100514.53;1728613;80;21265;-61
2021/06/23 04:55:45;;;;;;;;;;;;;;;24.66;71.94;100521.83;1734700;80;20286;-62
2021/06/23 04:58:11;;;;;;;;;;;;;;;24.62;71.98;100515.35;1702570;82;20236;-61
2021/06/23 05:00:36;;;;;;;;;;;;;;;24.55;71.90;100517.35;1707305;81;20434;-61
2021/06/23 05:03:03;;;;;;;;;;;;;;;24.48;71.96;100524.91;1708576;81;20191;-63
2021/06/23 05:05:29;;;;;;;;;;;;;;;24.47;72.04;100529.42;1713710;81;21031;-63
2021/06/23 05:07:55;;;;;;;;;;;;;;;24.43;71.94;100530.70;1714903;81;20796;-63
2021/06/23 05:10:21;;;;;;;;;;;;;;;24.40;71.99;100537.55;1719663;81;20471;-67
2021/06/23 05:12:47;;;;;;;;;;;;;;;24.36;71.98;100530.47;1731530;81;20226;-62
2021/06/23 05:15:13;;;;;;;;;;;;;;;24.34;71.97;100530.59;1731999;81;20246;-61
2021/06/23 05:17:39;;;;;;;;;;;;;;;24.29;71.88;100539.17;1734878;81;21032;-61
2021/06/23 05:20:06;;;;;;;;;;;;;;;24.26;71.95;100539.30;1761130;79;20475;-62
2021/06/23 05:22:32;;;;;;;;;;;;;;;24.20;71.89;100528.17;1760571;79;20211;-60
2021/06/23 05:24:58;;;;;;;;;;;;;;;24.19;71.86;100532.10;1753954;80;20415;-61
2021/06/23 05:27:24;;;;;;;;;;;;;;;24.18;71.91;100536.06;1754121;80;20258;-60
2021/06/23 05:29:50;;;;;;;;;;;;;;;24.22;72.00;100538.37;1757266;79;21019;-62
2021/06/23 05:32:16;;;;;;;;;;;;;;;24.27;72.09;100539.54;1758505;79;20847;-61
2021/06/23 05:34:41;;;;;;;;;;;;;;;24.35;72.11;100541.95;1757430;80;20261;-60
2021/06/23 05:37:07;;;;;;;;;;;;;;;24.41;72.12;100547.49;1760182;79;20163;-62
2021/06/23 05:39:33;;;;;;;;;;;;;;;24.47;72.08;100542.75;1760577;79;20245;-61
2021/06/23 05:41:59;;;;;;;;;;;;;;;24.55;72.06;100541.80;1757033;79;21175;-61
2021/06/23 05:44:25;;;;;;;;;;;;;;;24.62;72.03;100545.95;1760252;80;20960;-62
2021/06/23 05:46:51;;;;;;;;;;;;;;;24.66;71.96;100550.45;1755739;79;20193;-61
2021/06/23 05:49:17;;;;;;;;;;;;;;;24.72;71.90;100559.38;1759031;79;20497;-62
2021/06/23 05:51:43;;;;;;;;;;;;;;;24.76;71.84;100554.73;1759512;79;20447;-61
2021/06/23 05:54:09;;;;;;;;;;;;;;;24.81;71.79;100567.02;1761534;79;21138;-62
2021/06/23 05:56:34;;;;;;;;;;;;;;;24.84;71.77;100562.13;1756169;79;20871;-62
2021/06/23 05:59:00;;;;;;;;;;;;;;;24.87;71.67;100568.41;1760114;79;20247;-61
2021/06/23 06:01:27;;;;;;;;;;;;;;;24.88;71.59;100570.03;1761312;79;20164;-62
2021/06/23 06:03:53;;;;;;;;;;;;;;;24.86;71.49;100575.97;1753212;79;20251;-62
2021/06/23 06:06:19;;;;;;;;;;;;;;;24.86;71.41;100575.16;1767144;79;21152;-61
2021/06/23 06:08:45;;;;;;;;;;;;;;;24.83;71.35;100578.01;1769662;78;20463;-62
2021/06/23 06:11:11;;;;;;;;;;;;;;;24.83;71.31;100588.33;1764008;79;20737;-63
2021/06/23 06:13:37;;;;;;;;;;;;;;;24.81;71.27;100589.27;1766751;79;20655;-62
2021/06/23 06:16:03;;;;;;;;;;;;;;;24.80;71.26;100584.86;1765193;79;20203;-61
2021/06/23 06:18:29;;;;;;;;;;;;;;;24.79;71.22;100588.80;1764407;79;21037;-62
2021/06/23 06:20:57;;;;;;;;;;;;;;;24.76;71.18;100588.94;1764167;79;20418;-62
2021/06/23 06:23:24;;;;;;;;;;;;;;;24.73;71.18;100589.64;1766567;79;20180;-62
2021/06/23 06:25:50;;;;;;;;;;;;;;;24.72;71.16;100595.55;1768044;79;20185;-62
2021/06/23 06:28:16;;;;;;;;;;;;;;;24.68;71.16;100587.10;1769800;79;20241;-61
2021/06/23 06:30:42;;;;;;;;;;;;;;;24.67;71.14;100593.00;1769158;79;21157;-61
2021/06/23 06:33:08;;;;;;;;;;;;;;;24.65;71.14;100594.77;1770180;79;20190;-62
2021/06/23 06:35:35;;;;;;;;;;;;;;;24.64;71.09;100594.53;1761867;79;20132;-62
2021/06/23 06:38:01;;;;;;;;;;;;;;;24.64;71.09;100593.14;1768262;78;20165;-61
2021/06/23 06:40:27;;;;;;;;;;;;;;;24.66;71.10;100596.94;1769144;79;20269;-61
2021/06/23 06:42:53;;;;;;;;;;;;;;;24.67;71.13;100592.42;1764071;79;21165;-62
2021/06/23 06:45:19;;;;;;;;;;;;;;;24.69;71.13;100596.27;1762203;79;20735;-62
2021/06/23 06:47:46;;;;;;;;;;;;;;;24.72;71.13;100599.72;1768422;79;20453;-61
2021/06/23 06:50:12;;;;;;;;;;;;;;;24.75;71.12;100607.36;1761721;79;20207;-61
2021/06/23 06:52:38;;;;;;;;;;;;;;;24.79;71.10;100609.67;1769246;79;20157;-62
2021/06/23 06:55:06;;;;;;;;;;;;;;;24.81;71.03;100603.19;1766932;79;21021;-61
2021/06/23 06:57:32;;;;;;;;;;;;;;;24.83;70.95;100595.28;1762703;79;20473;-61
2021/06/23 06:59:58;;;;;;;;;;;;;;;24.86;70.94;100597.42;1764856;79;20148;-62
2021/06/23 07:02:24;;;;;;;;;;;;;;;24.88;70.83;100596.47;1766808;79;20176;-61
2021/06/23 07:04:50;;;;;;;;;;;;;;;24.88;70.75;100604.23;1767460;79;20231;-62
2021/06/23 07:07:16;;;;;;;;;;;;;;;24.90;70.69;100599.72;1758136;79;21129;-62
2021/06/23 07:09:42;;;;;;;;;;;;;;;24.90;70.59;100602.51;1751484;79;20282;-62
2021/06/23 07:12:09;;;;;;;;;;;;;;;24.89;70.57;100596.13;1763158;79;20788;-62
2021/06/23 07:14:35;;;;;;;;;;;;;;;24.89;70.51;100600.88;1753912;79;20457;-61
2021/06/23 07:17:01;;;;;;;;;;;;;;;24.89;70.48;100599.48;1761501;79;20816;-62
2021/06/23 07:19:27;;;;;;;;;;;;;;;24.86;70.44;100594.05;1750685;79;22026;-61
2021/06/23 07:21:53;;;;;;;;;;;;;;;24.88;70.42;100596.47;1757667;78;20793;-61
2021/06/23 07:24:19;;;;;;;;;;;;;;;24.84;70.40;100597.72;1757742;79;20206;-62
2021/06/23 07:26:47;;;;;;;;;;;;;;;24.83;70.36;100603.05;1765869;79;20204;-61
2021/06/23 07:29:14;;;;;;;;;;;;;;;24.82;70.38;100600.64;1756787;79;20258;-62
2021/06/23 07:31:51;;;;;;;;;;;;;;;24.80;70.35;100605.73;1764152;79;21136;-58
2021/06/23 07:34:21;;;;;;;;;;;;;;;24.78;70.35;100608.08;1755443;80;20213;-59
2021/06/23 07:36:49;;;;;;;;;;;;;;;24.77;70.36;100598.09;1759933;79;20166;-58
2021/06/23 07:39:12;;;;;;;;;;;;;;;24.75;70.36;100594.84;1760104;79;20476;-58
2021/06/23 07:41:39;;;;;;;;;;;;;;;24.75;70.35;100601.22;1762062;79;20117;-58
2021/06/23 07:44:05;;;;;;;;;;;;;;;24.77;70.35;100598.09;1768965;79;21789;-58
2021/06/23 07:46:35;;;;;;;;;;;;;;;24.78;70.39;100593.55;1732551;80;20175;-59
2021/06/23 07:48:59;;;;;;;;;;;;;;;24.80;70.42;100600.17;1737823;80;20144;-59
2021/06/23 07:54:17;;;;;;;;;;;;;;;24.86;70.52;100602.98;1734708;80;20182;-57
2021/06/23 08:09:56;;;;;;;;;;;;;;;25.08;70.54;100610.00;1684545;81;21091;-58
2021/06/23 08:12:24;;;;;;;;;;;;;;;25.12;70.50;100615.09;1714118;81;20433;-58
2021/06/23 08:14:46;;;;;;;;;;;;;;;25.13;70.50;100614.72;1725007;80;20436;-58
2021/06/23 08:17:12;;;;;;;;;;;;;;;25.16;70.47;100618.79;1732506;81;20763;-58
2021/06/23 08:19:38;;;;;;;;;;;;;;;25.17;70.45;100619.81;1766274;79;20147;-58
2021/06/23 08:22:04;;;;;;;;;;;;;;;25.18;70.37;100622.83;1756570;79;21109;-58
2021/06/23 08:24:31;;;;;;;;;;;;;;;25.18;70.31;100626.19;1746124;79;20494;-58
2021/06/23 08:26:56;;;;;;;;;;;;;;;25.17;70.27;100630.95;1761010;79;20435;-59
2021/06/23 08:29:22;;;;;;;;;;;;;;;25.16;70.24;100627.95;1760555;79;20312;-62
2021/06/23 08:31:48;;;;;;;;;;;;;;;25.16;70.20;100620.99;1758473;79;20247;-62
2021/06/23 08:34:14;;;;;;;;;;;;;;;25.14;70.14;100626.09;1757288;78;21149;-61
2021/06/23 08:36:40;;;;;;;;;;;;;;;25.12;70.13;100618.66;1755493;79;20752;-62
2021/06/23 08:39:06;;;;;;;;;;;;;;;25.10;70.09;100625.17;1767593;79;20264;-62
2021/06/23 08:41:35;;;;;;;;;;;;;;;25.10;70.05;100619.61;1765162;79;21417;-62
2021/06/23 08:44:00;;;;;;;;;;;;;;;25.08;70.00;100618.35;1764458;79;20137;-62
2021/06/23 08:46:26;;;;;;;;;;;;;;;25.06;69.96;100629.83;1763366;79;21098;-62
2021/06/23 08:48:52;;;;;;;;;;;;;;;25.04;69.94;100619.61;1766917;79;20416;-62
2021/06/23 08:51:20;;;;;;;;;;;;;;;25.04;69.87;100618.83;1760046;79;20437;-62
2021/06/23 08:53:46;;;;;;;;;;;;;;;25.02;69.79;100623.34;1745429;79;20228;-62
2021/06/23 08:56:12;;;;;;;;;;;;;;;25.01;69.73;100618.94;1759590;79;20199;-62
2021/06/23 08:58:38;;;;;;;;;;;;;;;25.00;69.68;100622.88;1759964;79;21833;-62
2021/06/23 09:01:04;;;;;;;;;;;;;;;24.97;69.66;100621.61;1759937;79;20211;-61
2021/06/23 09:03:30;;;;;;;;;;;;;;;24.96;69.64;100621.95;1768235;79;20140;-63
2021/06/23 09:05:57;;;;;;;;;;;;;;;24.95;69.57;100618.36;1760678;79;20171;-63
2021/06/23 09:08:32;;;;;;;;;;;;;;;24.95;69.52;100625.31;1761980;79;20303;-62
2021/06/23 09:10:59;;;;;;;;;;;;;;;24.95;69.43;100630.88;1770525;78;21813;-62
2021/06/23 09:13:25;;;;;;;;;;;;;;;24.95;69.36;100628.71;1770287;78;20187;-63
2021/06/23 09:15:57;;;;;;;;;;;;;;;24.97;69.34;100631.94;1757801;79;20214;-62
2021/06/23 09:18:29;;;;;;;;;;;;;;;24.99;69.32;100616.49;1758316;79;20243;-63
2021/06/23 09:21:00;;;;;;;;;;;;;;;25.01;69.31;100623.11;1763932;79;20381;-61
2021/06/23 09:23:39;;;;;;;;;;;;;;;25.05;69.33;100621.23;1754645;79;22230;-62
2021/06/23 09:26:10;;;;;;;;;;;;;;;25.09;69.32;100619.95;1754525;79;20441;-62
2021/06/23 09:28:36;;;;;;;;;;;;;;;25.11;69.33;100617.06;1763709;79;20176;-62
2021/06/23 09:31:05;;;;;;;;;;;;;;;25.16;69.34;100622.39;1764651;79;21555;-62
2021/06/23 09:33:30;;;;;;;;;;;;;;;25.20;69.34;100619.70;1721699;80;20173;-62
2021/06/23 09:36:00;;;;;;;;;;;;;;;25.26;69.35;100617.69;1691611;82;21146;-62
2021/06/23 09:38:49;;;;;;;;;;;;;;;25.31;69.32;100620.23;1692826;82;20821;-62
2021/06/23 09:41:20;;;;;;;;;;;;;;;25.35;69.27;100621.14;1693097;82;20225;-62
2021/06/23 09:43:49;;;;;;;;;;;;;;;25.40;69.21;100625.08;1740487;80;20151;-62
2021/06/23 09:46:20;;;;;;;;;;;;;;;25.43;69.14;100624.94;1736264;81;20160;-62
2021/06/23 09:48:46;;;;;;;;;;;;;;;25.44;69.07;100619.02;1723982;80;21335;-62
2021/06/23 09:51:14;;;;;;;;;;;;;;;25.46;69.00;100615.28;1730272;80;20211;-62
2021/06/23 09:53:40;;;;;;;;;;;;;;;25.47;68.92;100613.31;1737435;81;20383;-62
2021/06/23 09:56:24;;;;;;;;;;;;;;;25.46;68.83;100609.71;1698547;82;20502;-62
2021/06/23 09:58:52;;;;;;;;;;;;;;;25.46;68.80;100606.92;1716292;82;20150;-62
2021/06/23 10:01:18;;;;;;;;;;;;;;;25.44;68.73;100602.89;1704612;82;21156;-60
2021/06/23 10:04:10;;;;;;;;;;;;;;;25.44;68.69;100608.45;1701342;82;20166;-62
2021/06/23 10:06:38;;;;;;;;;;;;;;;25.43;68.65;100617.39;1703737;82;20173;-62
2021/06/23 10:09:20;;;;;;;;;;;;;;;25.41;68.62;100610.56;1739706;80;20406;-62
2021/06/23 10:11:47;;;;;;;;;;;;;;;25.39;68.59;100608.12;1726175;81;20200;-61
2021/06/23 10:14:13;;;;;;;;;;;;;;;25.36;68.59;100610.23;1712381;81;21069;-62
2021/06/23 10:16:39;;;;;;;;;;;;;;;25.37;68.58;100606.87;1697922;82;20192;-62
2021/06/23 10:19:06;;;;;;;;;;;;;;;25.35;68.57;100611.39;1687819;82;20508;-62
2021/06/23 10:21:33;;;;;;;;;;;;;;;25.33;68.58;100609.53;1730168;80;22034;-62
2021/06/23 10:23:59;;;;;;;;;;;;;;;25.34;68.58;100606.17;1748366;81;20143;-62
2021/06/23 10:26:29;;;;;;;;;;;;;;;25.32;68.55;100602.95;1735348;80;20928;-62
2021/06/23 10:28:56;;;;;;;;;;;;;;;25.32;68.56;100600.97;1732162;80;20358;-63
2021/06/23 10:31:23;;;;;;;;;;;;;;;25.31;68.57;100599.92;1738497;80;20349;-62
2021/06/23 10:33:49;;;;;;;;;;;;;;;25.33;68.55;100601.18;1737215;80;20108;-62
2021/06/23 10:36:15;;;;;;;;;;;;;;;25.36;68.53;100603.27;1732816;80;20190;-62
2021/06/23 10:38:42;;;;;;;;;;;;;;;25.38;68.55;100605.69;1719843;80;21142;-62
2021/06/23 10:41:09;;;;;;;;;;;;;;;25.41;68.58;100600.82;1743677;81;20348;-63
2021/06/23 10:43:35;;;;;;;;;;;;;;;25.44;68.60;100604.28;1742304;81;20349;-62
2021/06/23 10:46:01;;;;;;;;;;;;;;;25.48;68.62;100596.83;1704618;82;20172;-63
2021/06/23 10:48:27;;;;;;;;;;;;;;;25.54;68.63;100601.60;1735524;80;20756;-62
2021/06/23 10:50:52;;;;;;;;;;;;;;;25.58;68.62;100602.51;1733836;80;21255;-64
2021/06/23 10:53:33;;;;;;;;;;;;;;;25.63;68.60;100600.25;1750050;80;20313;-62
2021/06/23 10:56:01;;;;;;;;;;;;;;;25.68;68.58;100599.19;1736035;80;20161;-63
2021/06/23 10:58:28;;;;;;;;;;;;;;;25.73;68.55;100605.31;1737487;80;20145;-62
2021/06/23 11:01:07;;;;;;;;;;;;;;;25.76;68.50;100599.02;1734351;80;20246;-62
2021/06/23 11:03:37;;;;;;;;;;;;;;;25.80;68.46;100605.49;1735576;80;21192;-62
2021/06/23 11:06:03;;;;;;;;;;;;;;;25.82;68.40;100600.97;1712247;81;20113;-63
2021/06/23 11:08:33;;;;;;;;;;;;;;;25.85;68.34;100598.84;1712546;82;20153;-63
2021/06/23 11:11:01;;;;;;;;;;;;;;;25.86;68.26;100601.87;1708026;82;20221;-61
2021/06/23 11:13:32;;;;;;;;;;;;;;;25.88;68.18;100604.55;1707953;82;20209;-62
2021/06/23 11:15:59;;;;;;;;;;;;;;;25.86;68.13;100592.11;1710080;82;20974;-62
2021/06/23 11:18:34;;;;;;;;;;;;;;;25.87;68.08;100582.01;1715416;82;20537;-62
2021/06/23 11:21:17;;;;;;;;;;;;;;;25.86;68.02;100592.11;1716863;82;20221;-62
2021/06/23 11:23:58;;;;;;;;;;;;;;;25.85;67.97;100595.48;1713113;82;20146;-62
2021/06/23 11:26:31;;;;;;;;;;;;;;;25.83;67.92;100587.27;1705614;82;20158;-62
2021/06/23 11:29:13;;;;;;;;;;;;;;;25.81;67.90;100586.80;1706945;82;21713;-62
2021/06/23 11:31:43;;;;;;;;;;;;;;;25.79;67.88;100588.56;1713206;82;20243;-62
2021/06/23 11:34:09;;;;;;;;;;;;;;;25.78;67.85;100587.52;1700296;80;20169;-61
2021/06/23 11:36:35;;;;;;;;;;;;;;;25.77;67.86;100585.89;1703771;81;20189;-61
2021/06/23 11:39:02;;;;;;;;;;;;;;;25.76;67.87;100578.70;1742115;81;20266;-61
2021/06/23 11:41:28;;;;;;;;;;;;;;;25.74;67.86;100582.44;1742520;81;21153;-61
2021/06/23 11:43:54;;;;;;;;;;;;;;;25.74;67.85;100574.08;1748824;81;20194;-62
2021/06/23 11:46:20;;;;;;;;;;;;;;;25.74;67.85;100575.47;1751148;80;20211;-61
2021/06/23 11:48:46;;;;;;;;;;;;;;;25.73;67.85;100574.66;1752882;81;20238;-62
2021/06/23 11:51:12;;;;;;;;;;;;;;;25.73;67.84;100573.84;1748136;81;20736;-61
2021/06/23 11:53:38;;;;;;;;;;;;;;;25.75;67.84;100579.89;1739472;81;22031;-61
2021/06/23 11:56:04;;;;;;;;;;;;;;;25.76;67.81;100575.91;1759266;81;20205;-62
2021/06/23 11:58:30;;;;;;;;;;;;;;;25.80;67.86;100576.84;1749225;81;20089;-61
2021/06/23 12:00:56;;;;;;;;;;;;;;;25.82;67.87;100571.70;1749073;81;20659;-61
2021/06/23 12:03:22;;;;;;;;;;;;;;;25.86;67.89;100574.00;1738985;81;20281;-62
2021/06/23 12:05:49;;;;;;;;;;;;;;;25.90;67.91;100572.92;1736753;81;21049;-62
2021/06/23 12:08:15;;;;;;;;;;;;;;;25.94;67.92;100575.80;1735769;80;20446;-62
2021/06/23 12:10:41;;;;;;;;;;;;;;;25.98;67.92;100575.30;1733872;80;20428;-62
2021/06/23 12:13:08;;;;;;;;;;;;;;;26.04;67.91;100574.45;1730749;81;20755;-62
2021/06/23 12:15:34;;;;;;;;;;;;;;;26.08;67.86;100575.34;1733839;81;20199;-61
2021/06/23 12:18:01;;;;;;;;;;;;;;;26.12;67.84;100579.84;1733816;81;21137;-62
2021/06/23 12:20:30;;;;;;;;;;;;;;;26.18;67.80;100581.79;1738890;81;20808;-62
2021/06/23 12:23:00;;;;;;;;;;;;;;;26.21;67.75;100575.52;1740935;81;20164;-62
2021/06/23 12:25:33;;;;;;;;;;;;;;;26.25;67.71;100586.16;1737703;80;21914;-62
2021/06/23 12:27:59;;;;;;;;;;;;;;;26.26;67.65;100589.19;1741324;81;20186;-62
2021/06/23 12:30:28;;;;;;;;;;;;;;;26.28;67.57;100584.85;1739569;80;21177;-62
2021/06/23 12:32:58;;;;;;;;;;;;;;;26.28;67.47;100582.06;1751950;81;20168;-62
2021/06/23 12:35:27;;;;;;;;;;;;;;;26.28;67.40;100577.88;1748582;81;20199;-62
2021/06/23 12:37:53;;;;;;;;;;;;;;;26.28;67.35;100575.09;1741610;81;20493;-62
2021/06/23 12:40:19;;;;;;;;;;;;;;;26.29;67.30;100571.72;1745936;81;20265;-62
2021/06/23 12:42:45;;;;;;;;;;;;;;;26.28;67.25;100568.13;1741106;81;21094;-62
2021/06/23 12:45:27;;;;;;;;;;;;;;;26.26;67.22;100573.27;1731896;81;20182;-62
2021/06/23 12:47:53;;;;;;;;;;;;;;;26.26;67.19;100573.27;1737815;81;20193;-62
2021/06/23 12:50:19;;;;;;;;;;;;;;;26.25;67.15;100575.83;1729827;80;21937;-62
2021/06/23 12:52:46;;;;;;;;;;;;;;;26.25;67.15;100566.64;1739306;80;20126;-62